Time;durP1;ratioP1;P1;durP2;ratioP2;P2;SDS_P1;SDS_P2;PMS_P1;PMS_P2;Temp;Humidity;BMP_temperature;BMP_pressure;BME280_temperature;BME280_humidity;BME280_pressure;Samples;Min_cycle;Max_cycle;Signal;HPM_P1;HPM_P2
2021/09/21 00:01:32;;;;;;;21.73;20.23;;;;;;;;;;5039569;28;20470;-93
2021/09/21 00:04:01;;;;;;;22.80;21.20;;;;;;;;;;5038960;28;20561;-93
2021/09/21 00:06:29;;;;;;;21.30;19.90;;;;;;;;;;5056802;28;20460;-93
2021/09/21 00:08:56;;;;;;;21.57;20.17;;;;;;;;;;5056053;28;20445;-93
2021/09/21 00:11:24;;;;;;;22.23;20.83;;;;;;;;;;5056482;28;20441;-93
2021/09/21 00:13:51;;;;;;;22.30;21.00;;;;;;;;;;5039183;28;20819;-92
2021/09/21 00:16:18;;;;;;;21.37;20.17;;;;;;;;;;5057066;28;20434;-92
2021/09/21 00:18:46;;;;;;;21.90;20.50;;;;;;;;;;5056729;28;20445;-92
2021/09/21 00:21:15;;;;;;;21.60;20.10;;;;;;;;;;5056424;28;20465;-93
2021/09/21 00:23:42;;;;;;;20.60;19.40;;;;;;;;;;5057103;28;20429;-93
2021/09/21 00:26:09;;;;;;;21.27;20.03;;;;;;;;;;5056434;28;20420;-93
2021/09/21 00:28:37;;;;;;;22.83;21.33;;;;;;;;;;5039761;28;20443;-93
2021/09/21 00:31:08;;;;;;;21.40;20.03;;;;;;;;;;5056537;28;20405;-93
2021/09/21 00:33:46;;;;;;;20.83;19.70;;;;;;;;;;5056391;28;20466;-92
2021/09/21 00:36:15;;;;;;;21.47;19.93;;;;;;;;;;5056577;28;20448;-92
2021/09/21 00:38:43;;;;;;;21.80;20.57;;;;;;;;;;5056230;28;20930;-93
2021/09/21 00:41:10;;;;;;;21.10;19.90;;;;;;;;;;5055955;28;20476;-93
2021/09/21 00:43:38;;;;;;;21.10;19.80;;;;;;;;;;5038879;28;20478;-92
2021/09/21 00:46:06;;;;;;;21.67;20.40;;;;;;;;;;5057284;28;20417;-93
2021/09/21 00:48:33;;;;;;;22.10;20.60;;;;;;;;;;5056129;28;20454;-93
2021/09/21 00:51:00;;;;;;;21.90;20.60;;;;;;;;;;5055983;28;20420;-92
2021/09/21 00:53:30;;;;;;;22.10;20.60;;;;;;;;;;5055943;28;20439;-93
2021/09/21 00:55:57;;;;;;;21.23;19.83;;;;;;;;;;5056223;28;20466;-92
2021/09/21 00:58:25;;;;;;;21.33;20.03;;;;;;;;;;5038741;28;20475;-93
2021/09/21 01:00:52;;;;;;;21.57;20.27;;;;;;;;;;5055986;28;20420;-93
2021/09/21 01:03:19;;;;;;;21.93;20.50;;;;;;;;;;5055563;28;20964;-93
2021/09/21 01:05:47;;;;;;;22.13;20.57;;;;;;;;;;5056081;28;20416;-93
2021/09/21 01:08:14;;;;;;;22.40;20.87;;;;;;;;;;5055675;28;20423;-93
2021/09/21 01:10:43;;;;;;;22.53;20.90;;;;;;;;;;5038083;28;20451;-92
2021/09/21 01:13:11;;;;;;;21.83;20.60;;;;;;;;;;5038247;28;20795;-92
2021/09/21 01:15:38;;;;;;;22.07;20.77;;;;;;;;;;5055712;28;20459;-92
2021/09/21 01:18:05;;;;;;;21.90;20.60;;;;;;;;;;5055563;28;20493;-92
2021/09/21 01:20:33;;;;;;;22.63;21.20;;;;;;;;;;5055033;28;20398;-92
2021/09/21 01:23:04;;;;;;;21.97;20.50;;;;;;;;;;5055233;28;20478;-92
2021/09/21 01:25:32;;;;;;;22.20;20.80;;;;;;;;;;5055532;28;20438;-93
2021/09/21 01:28:00;;;;;;;21.60;20.30;;;;;;;;;;5055691;28;20533;-93
2021/09/21 01:30:27;;;;;;;22.33;21.03;;;;;;;;;;5055386;28;20913;-93
2021/09/21 01:32:55;;;;;;;21.13;19.97;;;;;;;;;;5055077;28;20416;-93
2021/09/21 01:35:22;;;;;;;22.33;21.03;;;;;;;;;;5055450;28;20939;-94
2021/09/21 01:37:52;;;;;;;22.33;20.67;;;;;;;;;;5055327;28;20924;-92
2021/09/21 01:40:21;;;;;;;21.40;20.10;;;;;;;;;;5055054;28;20963;-93
2021/09/21 01:42:50;;;;;;;21.60;20.20;;;;;;;;;;5054974;28;20445;-93
2021/09/21 01:45:17;;;;;;;21.60;20.20;;;;;;;;;;5054673;28;20452;-92
2021/09/21 01:47:48;;;;;;;22.40;20.90;;;;;;;;;;5054907;28;20442;-93
2021/09/21 01:53:06;;;;;;;22.40;20.90;;;;;;;;;;5055331;28;20941;-92
2021/09/21 02:00:58;;;;;;;21.60;20.20;;;;;;;;;;5054434;28;20477;-93
2021/09/21 02:03:26;;;;;;;21.27;19.90;;;;;;;;;;5054354;28;20483;-93
2021/09/21 02:05:53;;;;;;;22.10;20.80;;;;;;;;;;5036775;28;20969;-93
2021/09/21 02:08:21;;;;;;;21.70;20.40;;;;;;;;;;5054915;28;20445;-93
2021/09/21 02:10:50;;;;;;;20.90;19.67;;;;;;;;;;5054963;28;20446;-92
2021/09/21 02:13:18;;;;;;;21.47;20.27;;;;;;;;;;5054468;28;20427;-93
2021/09/21 02:15:45;;;;;;;22.57;20.97;;;;;;;;;;5053884;28;21018;-93
2021/09/21 02:18:12;;;;;;;21.87;20.43;;;;;;;;;;5054461;28;20420;-92
2021/09/21 02:20:40;;;;;;;21.90;20.60;;;;;;;;;;5054201;28;20458;-93
2021/09/21 02:23:07;;;;;;;23.30;21.50;;;;;;;;;;5054300;28;20496;-93
2021/09/21 02:25:35;;;;;;;22.53;21.13;;;;;;;;;;5037116;28;20563;-93
2021/09/21 02:28:04;;;;;;;23.90;22.50;;;;;;;;;;5054212;28;20437;-93
2021/09/21 02:30:31;;;;;;;22.20;20.77;;;;;;;;;;5054456;28;20449;-92
2021/09/21 02:32:58;;;;;;;21.93;20.53;;;;;;;;;;5053576;28;20436;-92
2021/09/21 02:35:26;;;;;;;22.17;20.77;;;;;;;;;;5036792;28;20831;-92
2021/09/21 02:37:53;;;;;;;22.13;20.73;;;;;;;;;;5054037;28;20413;-93
2021/09/21 02:40:22;;;;;;;21.63;20.30;;;;;;;;;;5054229;28;20440;-92
2021/09/21 02:42:50;;;;;;;21.00;19.80;;;;;;;;;;5054230;28;20548;-92
2021/09/21 02:45:19;;;;;;;22.13;20.77;;;;;;;;;;5054490;28;20452;-92
2021/09/21 02:47:46;;;;;;;22.33;20.93;;;;;;;;;;5054253;28;20884;-92
2021/09/21 02:50:14;;;;;;;22.60;21.23;;;;;;;;;;5054083;28;20432;-93
2021/09/21 02:52:41;;;;;;;23.57;22.07;;;;;;;;;;5054317;28;20420;-92
2021/09/21 02:55:09;;;;;;;23.00;21.37;;;;;;;;;;5053816;28;20527;-92
2021/09/21 02:57:37;;;;;;;23.37;21.73;;;;;;;;;;5036509;28;20466;-92
2021/09/21 03:00:06;;;;;;;23.10;21.70;;;;;;;;;;5053961;28;20444;-92
2021/09/21 03:02:35;;;;;;;22.10;20.60;;;;;;;;;;5053622;28;20493;-92
2021/09/21 03:05:05;;;;;;;22.10;20.60;;;;;;;;;;5053824;28;20522;-93
2021/09/21 03:07:37;;;;;;;24.77;23.17;;;;;;;;;;5053934;28;20410;-93
2021/09/21 03:18:20;;;;;;;23.77;22.17;;;;;;;;;;5054228;28;20439;-92
2021/09/21 03:20:47;;;;;;;23.33;21.60;;;;;;;;;;5053589;28;20417;-92
2021/09/21 03:23:15;;;;;;;23.90;22.20;;;;;;;;;;5054039;28;20448;-92
2021/09/21 03:25:42;;;;;;;22.80;21.40;;;;;;;;;;5053562;28;20410;-92
2021/09/21 03:28:09;;;;;;;23.03;21.53;;;;;;;;;;5053695;28;20438;-92
2021/09/21 03:30:37;;;;;;;23.90;22.27;;;;;;;;;;5053609;28;20409;-93
2021/09/21 03:33:05;;;;;;;22.90;21.20;;;;;;;;;;5035881;28;20768;-93
2021/09/21 03:35:33;;;;;;;22.07;20.67;;;;;;;;;;5053707;28;20462;-92
2021/09/21 03:38:01;;;;;;;23.93;22.07;;;;;;;;;;5036202;28;20467;-92
2021/09/21 03:40:28;;;;;;;23.07;21.50;;;;;;;;;;5053501;28;20461;-93
2021/09/21 03:42:56;;;;;;;24.33;22.63;;;;;;;;;;5053682;28;20485;-93
2021/09/21 03:45:24;;;;;;;23.57;22.00;;;;;;;;;;5039244;28;20427;-92
2021/09/21 03:47:51;;;;;;;23.07;21.67;;;;;;;;;;5057144;28;20455;-92
2021/09/21 03:50:19;;;;;;;23.67;22.10;;;;;;;;;;5057525;28;20437;-92
2021/09/21 03:52:48;;;;;;;23.83;22.03;;;;;;;;;;5057204;28;20846;-93
2021/09/21 03:55:16;;;;;;;22.17;20.77;;;;;;;;;;5039394;28;20414;-93
2021/09/21 03:57:43;;;;;;;22.73;21.30;;;;;;;;;;5039715;28;20934;-93
2021/09/21 04:00:12;;;;;;;22.33;20.90;;;;;;;;;;5057097;28;20435;-93
2021/09/21 04:02:39;;;;;;;23.03;21.43;;;;;;;;;;5056827;28;20950;-94
2021/09/21 04:05:07;;;;;;;22.97;21.37;;;;;;;;;;5057437;28;20438;-93
2021/09/21 04:07:35;;;;;;;23.60;21.90;;;;;;;;;;5056820;28;20478;-93
2021/09/21 04:10:04;;;;;;;23.20;21.50;;;;;;;;;;5039477;28;20424;-93
2021/09/21 04:12:31;;;;;;;22.57;21.07;;;;;;;;;;5057007;28;20414;-92
2021/09/21 04:14:59;;;;;;;24.10;22.50;;;;;;;;;;5056786;28;20429;-93
2021/09/21 04:17:26;;;;;;;23.00;21.50;;;;;;;;;;5056752;28;20425;-92
2021/09/21 04:19:53;;;;;;;23.50;22.00;;;;;;;;;;5057791;28;20793;-93
2021/09/21 04:22:21;;;;;;;23.00;21.50;;;;;;;;;;5057129;28;20449;-92
2021/09/21 04:24:48;;;;;;;23.37;21.67;;;;;;;;;;5038974;28;20833;-93
2021/09/21 04:27:17;;;;;;;23.47;21.77;;;;;;;;;;5056898;28;20409;-93
2021/09/21 04:29:44;;;;;;;24.47;22.43;;;;;;;;;;5056635;28;20424;-93
2021/09/21 04:32:14;;;;;;;23.87;22.23;;;;;;;;;;5056871;28;20406;-93
2021/09/21 04:34:41;;;;;;;23.30;21.50;;;;;;;;;;5056644;28;20417;-92
2021/09/21 04:37:09;;;;;;;24.20;22.57;;;;;;;;;;5056277;28;20446;-93
2021/09/21 04:39:40;;;;;;;23.30;21.50;;;;;;;;;;5057375;28;20405;-92
2021/09/21 04:42:07;;;;;;;24.47;22.63;;;;;;;;;;5057366;28;20417;-92
2021/09/21 04:44:37;;;;;;;22.73;21.23;;;;;;;;;;5056224;28;20463;-93
2021/09/21 04:47:05;;;;;;;23.77;22.07;;;;;;;;;;5056350;28;20405;-93
2021/09/21 04:49:34;;;;;;;22.53;21.03;;;;;;;;;;5056929;28;20428;-93
2021/09/21 04:52:01;;;;;;;23.57;22.00;;;;;;;;;;5056064;28;20946;-92
2021/09/21 04:54:29;;;;;;;24.43;22.60;;;;;;;;;;5056660;28;20825;-92
2021/09/21 04:56:56;;;;;;;24.27;22.67;;;;;;;;;;5055252;28;20411;-93
2021/09/21 04:59:23;;;;;;;24.90;23.20;;;;;;;;;;5056000;28;20425;-93
2021/09/21 05:01:52;;;;;;;24.10;22.60;;;;;;;;;;5056250;28;20417;-93
2021/09/21 05:04:20;;;;;;;24.63;22.80;;;;;;;;;;5055478;28;20495;-92
2021/09/21 05:06:47;;;;;;;24.07;22.47;;;;;;;;;;5022930;28;20496;-92
2021/09/21 05:09:15;;;;;;;24.10;22.30;;;;;;;;;;5038421;28;20450;-92
2021/09/21 05:11:44;;;;;;;23.07;21.57;;;;;;;;;;5038532;28;20850;-92
2021/09/21 05:14:12;;;;;;;23.37;21.67;;;;;;;;;;5055862;28;20421;-92
2021/09/21 05:16:39;;;;;;;23.90;22.30;;;;;;;;;;5038140;28;20417;-92
2021/09/21 05:19:11;;;;;;;22.83;21.37;;;;;;;;;;5055794;28;20816;-91
2021/09/21 05:21:38;;;;;;;24.07;22.37;;;;;;;;;;5038267;28;20469;-92
2021/09/21 05:24:06;;;;;;;24.60;22.87;;;;;;;;;;5055491;28;20497;-92
2021/09/21 05:26:34;;;;;;;24.20;22.50;;;;;;;;;;5055668;28;20956;-92
2021/09/21 05:29:01;;;;;;;24.37;22.77;;;;;;;;;;5055677;28;20440;-92
2021/09/21 05:31:28;;;;;;;24.67;23.07;;;;;;;;;;5056260;28;20458;-92
2021/09/21 05:33:56;;;;;;;25.67;23.77;;;;;;;;;;5055291;28;20416;-92
2021/09/21 05:36:25;;;;;;;24.50;22.70;;;;;;;;;;5056190;28;20779;-92
2021/09/21 05:38:52;;;;;;;25.03;23.33;;;;;;;;;;5055566;28;20404;-88
2021/09/21 05:41:20;;;;;;;24.30;22.70;;;;;;;;;;5055610;28;20421;-89
2021/09/21 05:43:47;;;;;;;24.60;22.80;;;;;;;;;;5054878;28;20486;-95
2021/09/21 05:46:15;;;;;;;24.40;22.70;;;;;;;;;;5055074;28;20462;-93
2021/09/21 05:48:42;;;;;;;24.90;23.20;;;;;;;;;;5054937;28;20465;-92
2021/09/21 05:51:09;;;;;;;25.30;23.50;;;;;;;;;;5054983;28;20981;-88
2021/09/21 05:53:38;;;;;;;25.30;23.60;;;;;;;;;;5054949;28;20409;-89
2021/09/21 05:56:06;;;;;;;25.47;23.50;;;;;;;;;;5054885;28;20417;-89
2021/09/21 05:58:33;;;;;;;26.40;24.73;;;;;;;;;;5055326;28;20461;-89
2021/09/21 06:01:02;;;;;;;26.33;24.53;;;;;;;;;;5055104;28;20505;-89
2021/09/21 06:03:29;;;;;;;25.90;23.80;;;;;;;;;;5054644;28;20490;-89
2021/09/21 06:05:57;;;;;;;25.87;23.63;;;;;;;;;;5055085;28;20438;-89
2021/09/21 06:08:24;;;;;;;26.20;24.20;;;;;;;;;;5054957;28;20409;-88
2021/09/21 06:10:53;;;;;;;25.33;23.50;;;;;;;;;;5054976;28;20427;-88
2021/09/21 06:13:20;;;;;;;26.77;24.67;;;;;;;;;;5054769;28;20424;-88
2021/09/21 06:15:48;;;;;;;24.53;22.73;;;;;;;;;;5037259;28;20465;-90
2021/09/21 06:18:15;;;;;;;24.63;22.73;;;;;;;;;;5054605;28;20428;-90
2021/09/21 06:20:43;;;;;;;25.00;23.10;;;;;;;;;;5054537;28;20454;-88
2021/09/21 06:23:11;;;;;;;25.27;23.43;;;;;;;;;;5054376;28;20509;-87
2021/09/21 06:25:38;;;;;;;26.17;24.30;;;;;;;;;;5054273;28;20433;-86
2021/09/21 06:28:07;;;;;;;27.30;24.83;;;;;;;;;;5054311;28;20418;-86
2021/09/21 06:30:35;;;;;;;25.63;23.73;;;;;;;;;;5054248;28;20880;-86
2021/09/21 06:33:02;;;;;;;25.40;23.60;;;;;;;;;;5054175;28;20437;-87
2021/09/21 06:35:30;;;;;;;25.70;23.80;;;;;;;;;;5054268;28;20437;-87
2021/09/21 06:37:57;;;;;;;25.87;24.03;;;;;;;;;;5053992;28;20450;-87
2021/09/21 06:40:26;;;;;;;27.10;25.17;;;;;;;;;;5054151;28;20413;-87
2021/09/21 06:42:53;;;;;;;26.47;24.37;;;;;;;;;;5036726;28;20491;-87
2021/09/21 06:45:22;;;;;;;26.60;24.70;;;;;;;;;;5054508;28;20413;-87
2021/09/21 06:47:50;;;;;;;25.50;23.60;;;;;;;;;;5054644;28;20442;-87
2021/09/21 06:50:17;;;;;;;26.77;24.43;;;;;;;;;;5036464;28;20437;-87
2021/09/21 06:52:45;;;;;;;27.00;25.07;;;;;;;;;;5053981;28;20438;-86
2021/09/21 06:55:13;;;;;;;27.30;25.30;;;;;;;;;;5053893;28;20446;-87
2021/09/21 06:57:41;;;;;;;26.97;24.87;;;;;;;;;;5054130;28;20460;-88
2021/09/21 07:00:09;;;;;;;26.70;24.70;;;;;;;;;;5054359;28;20512;-87
2021/09/21 07:02:39;;;;;;;25.77;23.57;;;;;;;;;;5053959;28;20941;-89
2021/09/21 07:05:07;;;;;;;26.70;24.83;;;;;;;;;;5054285;28;20558;-89
2021/09/21 07:07:35;;;;;;;27.17;25.17;;;;;;;;;;5036586;28;20421;-89
2021/09/21 07:10:02;;;;;;;26.10;24.10;;;;;;;;;;5054186;28;20430;-87
2021/09/21 07:12:29;;;;;;;28.03;25.90;;;;;;;;;;5054063;28;20858;-88
2021/09/21 07:14:57;;;;;;;27.30;25.30;;;;;;;;;;5054228;28;20413;-88
2021/09/21 07:17:24;;;;;;;28.47;26.27;;;;;;;;;;5053956;28;20934;-88
2021/09/21 07:19:53;;;;;;;26.80;24.60;;;;;;;;;;5039153;28;20429;-87
2021/09/21 07:22:20;;;;;;;30.17;27.57;;;;;;;;;;5058080;28;20436;-87
2021/09/21 07:24:49;;;;;;;29.90;27.40;;;;;;;;;;5057862;28;20484;-87
2021/09/21 07:27:17;;;;;;;27.03;24.97;;;;;;;;;;5057602;28;20455;-87
2021/09/21 07:29:44;;;;;;;27.60;25.30;;;;;;;;;;5057897;28;20424;-88
2021/09/21 07:32:12;;;;;;;27.80;25.70;;;;;;;;;;5057943;28;20413;-87
2021/09/21 07:34:39;;;;;;;27.43;25.23;;;;;;;;;;5058140;28;20525;-87
2021/09/21 07:37:10;;;;;;;27.60;25.57;;;;;;;;;;5057903;28;21123;-88
2021/09/21 07:39:37;;;;;;;28.40;26.17;;;;;;;;;;5057493;28;20442;-85
2021/09/21 07:42:04;;;;;;;28.33;25.93;;;;;;;;;;5056022;28;20424;-85
2021/09/21 07:44:32;;;;;;;26.97;24.60;;;;;;;;;;5057209;28;20457;-84
2021/09/21 07:47:00;;;;;;;25.87;24.00;;;;;;;;;;5057029;28;20412;-87
2021/09/21 07:49:27;;;;;;;26.97;24.67;;;;;;;;;;5057861;28;20898;-96
2021/09/21 07:51:55;;;;;;;26.90;24.83;;;;;;;;;;5040249;28;20440;-84
2021/09/21 07:54:25;;;;;;;26.73;24.90;;;;;;;;;;5056752;28;20433;-85
2021/09/21 07:56:52;;;;;;;26.70;24.70;;;;;;;;;;5056929;28;20413;-85
2021/09/21 07:59:19;;;;;;;26.40;24.60;;;;;;;;;;5057547;28;20462;-85
2021/09/21 08:01:47;;;;;;;27.77;25.67;;;;;;;;;;5039971;28;20450;-83
2021/09/21 08:04:14;;;;;;;25.77;23.90;;;;;;;;;;5056444;28;20505;-88
2021/09/21 08:06:42;;;;;;;27.13;24.93;;;;;;;;;;5057185;28;20413;-84
2021/09/21 08:09:09;;;;;;;27.43;25.43;;;;;;;;;;5057344;28;20429;-90
2021/09/21 08:11:38;;;;;;;27.00;25.00;;;;;;;;;;5057032;28;20413;-93
2021/09/21 08:14:06;;;;;;;27.03;25.13;;;;;;;;;;5043380;28;20447;-93
2021/09/21 08:16:34;;;;;;;28.97;26.57;;;;;;;;;;5059598;28;20963;-91
2021/09/21 08:19:01;;;;;;;27.03;25.00;;;;;;;;;;5057146;28;20827;-90
2021/09/21 08:21:29;;;;;;;27.37;25.00;;;;;;;;;;5057907;28;20413;-87
2021/09/21 08:23:56;;;;;;;27.53;25.23;;;;;;;;;;5057600;28;20465;-90
2021/09/21 08:26:24;;;;;;;28.37;26.07;;;;;;;;;;5057224;28;20465;-86
2021/09/21 08:28:53;;;;;;;28.43;26.43;;;;;;;;;;5057421;28;20440;-86
2021/09/21 08:31:20;;;;;;;27.70;25.53;;;;;;;;;;5055358;28;20494;-90
2021/09/21 08:33:48;;;;;;;27.13;25.23;;;;;;;;;;5056954;28;20433;-93
2021/09/21 08:36:15;;;;;;;26.70;24.60;;;;;;;;;;5056737;28;20785;-94
2021/09/21 08:38:42;;;;;;;26.23;24.53;;;;;;;;;;5056981;28;20458;-94
2021/09/21 08:41:10;;;;;;;26.23;24.00;;;;;;;;;;5057101;28;20456;-89
2021/09/21 08:43:37;;;;;;;26.30;24.50;;;;;;;;;;5056195;28;20477;-88
2021/09/21 08:46:06;;;;;;;27.43;25.07;;;;;;;;;;5058349;28;20432;-87
2021/09/21 08:48:34;;;;;;;25.97;23.97;;;;;;;;;;5056095;28;20482;-90
2021/09/21 08:51:01;;;;;;;25.93;24.00;;;;;;;;;;5056264;28;20442;-91
2021/09/21 08:53:28;;;;;;;25.93;24.30;;;;;;;;;;5055959;28;20467;-92
2021/09/21 08:55:56;;;;;;;24.30;22.80;;;;;;;;;;5055735;28;20481;-89
2021/09/21 08:58:25;;;;;;;26.23;24.23;;;;;;;;;;5056388;28;20429;-89
2021/09/21 09:00:52;;;;;;;24.67;22.87;;;;;;;;;;5057160;28;20410;-90
2021/09/21 09:03:22;;;;;;;26.37;24.13;;;;;;;;;;5055514;28;20480;-86
2021/09/21 09:05:51;;;;;;;25.83;24.07;;;;;;;;;;5055811;28;20410;-86
2021/09/21 09:08:29;;;;;;;26.90;25.00;;;;;;;;;;5055925;28;20418;-87
2021/09/21 09:11:00;;;;;;;25.93;23.90;;;;;;;;;;5038031;28;20815;-87
2021/09/21 09:13:33;;;;;;;25.57;23.70;;;;;;;;;;5055944;28;20412;-87
2021/09/21 09:16:01;;;;;;;24.67;23.00;;;;;;;;;;5055553;28;20422;-90
2021/09/21 09:18:30;;;;;;;25.80;23.90;;;;;;;;;;5055525;28;20447;-90
2021/09/21 09:21:00;;;;;;;26.17;24.37;;;;;;;;;;5055907;28;20516;-90
2021/09/21 09:23:27;;;;;;;25.90;24.00;;;;;;;;;;5055510;28;20460;-90
2021/09/21 09:25:55;;;;;;;25.90;24.03;;;;;;;;;;5056006;28;20462;-91
2021/09/21 09:28:25;;;;;;;25.90;24.20;;;;;;;;;;5038188;28;20546;-90
2021/09/21 09:30:53;;;;;;;24.13;22.50;;;;;;;;;;5037856;28;20536;-90
2021/09/21 09:33:22;;;;;;;26.03;24.17;;;;;;;;;;5055422;28;20820;-90
2021/09/21 09:35:51;;;;;;;24.80;23.20;;;;;;;;;;5055700;28;20415;-90
2021/09/21 09:38:20;;;;;;;24.63;22.73;;;;;;;;;;5055445;28;20461;-91
2021/09/21 09:40:48;;;;;;;24.53;22.83;;;;;;;;;;5055406;28;20485;-90
2021/09/21 09:43:16;;;;;;;24.83;22.90;;;;;;;;;;5055070;28;20889;-90
2021/09/21 09:45:45;;;;;;;25.53;23.63;;;;;;;;;;5055455;28;20567;-88
2021/09/21 09:48:14;;;;;;;24.70;22.90;;;;;;;;;;5055719;28;20904;-90
2021/09/21 09:50:43;;;;;;;25.43;23.40;;;;;;;;;;5054922;28;20472;-91
2021/09/21 09:53:15;;;;;;;24.17;22.47;;;;;;;;;;5037836;28;20438;-91
2021/09/21 09:55:44;;;;;;;25.13;23.10;;;;;;;;;;5055170;28;20447;-90
2021/09/21 09:58:12;;;;;;;25.13;23.13;;;;;;;;;;5055436;28;20502;-90
2021/09/21 10:00:39;;;;;;;25.27;23.47;;;;;;;;;;5054336;28;20447;-90
2021/09/21 10:03:07;;;;;;;25.77;23.87;;;;;;;;;;5054977;28;20462;-87
2021/09/21 10:05:36;;;;;;;25.43;23.63;;;;;;;;;;5055055;28;20542;-91
2021/09/21 10:08:04;;;;;;;24.77;23.03;;;;;;;;;;5055903;28;20476;-89
2021/09/21 10:10:34;;;;;;;25.23;23.33;;;;;;;;;;5058418;28;20452;-92
2021/09/21 10:13:03;;;;;;;25.00;23.30;;;;;;;;;;5056700;28;20451;-88
2021/09/21 10:15:31;;;;;;;24.73;22.30;;;;;;;;;;5054532;28;20889;-93
2021/09/21 10:17:59;;;;;;;24.03;22.33;;;;;;;;;;5056268;28;20422;-92
2021/09/21 10:20:31;;;;;;;22.00;20.60;;;;;;;;;;5055892;28;20452;-95
2021/09/21 10:22:59;;;;;;;23.97;22.23;;;;;;;;;;5064781;28;20429;-85
2021/09/21 10:25:30;;;;;;;23.83;22.13;;;;;;;;;;5062187;28;20485;-93
2021/09/21 10:28:12;;;;;;;24.57;22.97;;;;;;;;;;5061383;28;20776;-91
2021/09/21 10:30:40;;;;;;;22.80;21.27;;;;;;;;;;5074302;28;20410;-92
2021/09/21 10:33:18;;;;;;;23.53;22.10;;;;;;;;;;5074783;28;20433;-91
2021/09/21 10:35:48;;;;;;;24.60;23.00;;;;;;;;;;5056828;28;20439;-92
2021/09/21 10:38:17;;;;;;;23.27;21.77;;;;;;;;;;5055868;28;20535;-93
2021/09/21 10:40:47;;;;;;;24.30;22.73;;;;;;;;;;5054272;28;20456;-88
2021/09/21 10:43:26;;;;;;;23.70;22.10;;;;;;;;;;5037534;28;20489;-91
2021/09/21 10:46:06;;;;;;;24.77;23.17;;;;;;;;;;5053781;28;20534;-89
2021/09/21 10:48:35;;;;;;;24.00;22.40;;;;;;;;;;5053854;28;20836;-86
2021/09/21 10:51:03;;;;;;;23.57;21.80;;;;;;;;;;5055815;28;20409;-86
2021/09/21 10:53:31;;;;;;;24.20;22.60;;;;;;;;;;5073074;28;20412;-85
2021/09/21 10:56:02;;;;;;;22.70;21.20;;;;;;;;;;5065813;28;20448;-86
2021/09/21 10:58:31;;;;;;;24.07;22.37;;;;;;;;;;5053824;28;20418;-86
2021/09/21 11:00:58;;;;;;;23.20;21.70;;;;;;;;;;5062884;28;20449;-87
2021/09/21 11:03:26;;;;;;;23.03;21.60;;;;;;;;;;5073813;28;20796;-85
2021/09/21 11:05:55;;;;;;;23.23;21.73;;;;;;;;;;5073428;28;20469;-86
2021/09/21 11:08:29;;;;;;;24.50;22.70;;;;;;;;;;5053634;28;20416;-85
2021/09/21 11:10:59;;;;;;;24.80;23.03;;;;;;;;;;5036062;28;20544;-85
2021/09/21 11:13:27;;;;;;;23.40;21.90;;;;;;;;;;5055045;28;20458;-84
2021/09/21 11:16:00;;;;;;;24.03;22.30;;;;;;;;;;5057265;28;20427;-84
2021/09/21 11:18:27;;;;;;;24.37;22.80;;;;;;;;;;5073056;28;20459;-83
2021/09/21 11:20:56;;;;;;;23.93;22.33;;;;;;;;;;5072978;28;20460;-84
2021/09/21 11:23:24;;;;;;;23.60;22.10;;;;;;;;;;5072882;28;20921;-83
2021/09/21 11:25:52;;;;;;;24.13;22.10;;;;;;;;;;5055017;28;20482;-90
2021/09/21 11:28:20;;;;;;;24.20;22.70;;;;;;;;;;5054444;28;20469;-86
2021/09/21 11:30:48;;;;;;;24.10;22.60;;;;;;;;;;5069915;28;20419;-84
2021/09/21 11:33:18;;;;;;;24.57;22.80;;;;;;;;;;5073158;28;20439;-85
2021/09/21 11:35:48;;;;;;;25.20;23.60;;;;;;;;;;5073897;28;20458;-84
2021/09/21 11:38:15;;;;;;;23.60;22.17;;;;;;;;;;5073489;28;20434;-84
2021/09/21 11:40:44;;;;;;;24.47;22.87;;;;;;;;;;5065938;28;20458;-84
2021/09/21 11:43:11;;;;;;;25.00;23.30;;;;;;;;;;5061271;28;20458;-84
2021/09/21 11:45:39;;;;;;;25.10;23.40;;;;;;;;;;5061375;28;20495;-84
2021/09/21 11:48:09;;;;;;;24.30;22.50;;;;;;;;;;5053452;28;20825;-85
2021/09/21 11:50:40;;;;;;;24.47;22.83;;;;;;;;;;5053394;28;20469;-85
2021/09/21 11:53:08;;;;;;;24.43;22.73;;;;;;;;;;5053110;28;20439;-84
2021/09/21 11:55:36;;;;;;;24.70;22.90;;;;;;;;;;5053217;28;20416;-84
2021/09/21 11:58:05;;;;;;;24.53;22.83;;;;;;;;;;5053298;28;20439;-84
2021/09/21 12:00:33;;;;;;;24.97;23.27;;;;;;;;;;5053383;28;20441;-83
2021/09/21 12:03:01;;;;;;;24.77;23.17;;;;;;;;;;5066191;28;20480;-84
2021/09/21 12:05:29;;;;;;;24.73;23.13;;;;;;;;;;5074944;28;20919;-84
2021/09/21 12:07:59;;;;;;;24.30;22.80;;;;;;;;;;5076599;28;20439;-84
2021/09/21 12:10:26;;;;;;;24.70;23.10;;;;;;;;;;5076423;28;20463;-84
2021/09/21 12:13:15;;;;;;;24.20;22.80;;;;;;;;;;5058896;28;20470;-84
2021/09/21 12:15:43;;;;;;;23.67;22.20;;;;;;;;;;5070578;28;20463;-85
2021/09/21 12:18:11;;;;;;;23.83;22.33;;;;;;;;;;5076554;28;20427;-84
2021/09/21 12:20:39;;;;;;;24.30;22.70;;;;;;;;;;5076614;28;20426;-84
2021/09/21 12:23:09;;;;;;;23.63;22.23;;;;;;;;;;5076606;28;20440;-84
2021/09/21 12:25:36;;;;;;;25.13;23.37;;;;;;;;;;5076287;28;20488;-85
2021/09/21 12:28:05;;;;;;;24.53;22.93;;;;;;;;;;5064918;28;20905;-85
2021/09/21 12:30:34;;;;;;;25.77;23.83;;;;;;;;;;5065105;28;20451;-84
2021/09/21 12:33:02;;;;;;;25.70;24.10;;;;;;;;;;5043402;28;20441;-85
2021/09/21 12:35:30;;;;;;;25.87;24.10;;;;;;;;;;5066263;28;20439;-84
2021/09/21 12:38:06;;;;;;;24.57;23.07;;;;;;;;;;5067157;28;20417;-84
2021/09/21 12:40:35;;;;;;;25.40;23.70;;;;;;;;;;5057015;28;20443;-84
2021/09/21 12:43:06;;;;;;;24.63;23.00;;;;;;;;;;5056288;28;20436;-84
2021/09/21 12:45:34;;;;;;;24.83;23.23;;;;;;;;;;5068047;28;20444;-83
2021/09/21 12:48:03;;;;;;;23.70;22.27;;;;;;;;;;5043497;28;20421;-84
2021/09/21 12:50:31;;;;;;;23.90;22.30;;;;;;;;;;5043308;28;20499;-84
2021/09/21 12:53:00;;;;;;;24.30;22.80;;;;;;;;;;5055622;28;20894;-84
2021/09/21 12:55:32;;;;;;;25.17;23.37;;;;;;;;;;5056422;28;20523;-88
2021/09/21 12:58:01;;;;;;;23.40;22.00;;;;;;;;;;5056037;28;20457;-88
2021/09/21 13:00:34;;;;;;;24.97;23.27;;;;;;;;;;5056954;28;20420;-88
2021/09/21 13:03:02;;;;;;;24.43;22.73;;;;;;;;;;5056210;28;20520;-87
2021/09/21 13:05:29;;;;;;;24.40;22.70;;;;;;;;;;5056948;28;20493;-88
2021/09/21 13:07:57;;;;;;;24.63;22.80;;;;;;;;;;5056060;28;20489;-88
2021/09/21 13:10:24;;;;;;;22.60;21.20;;;;;;;;;;5055850;28;20782;-86
2021/09/21 13:12:55;;;;;;;267.70;240.17;;;;;;;;;;5055861;28;20447;-87
2021/09/21 13:15:25;;;;;;;22.80;21.40;;;;;;;;;;5055893;28;20451;-87
2021/09/21 13:17:54;;;;;;;23.23;21.73;;;;;;;;;;5055253;28;20898;-87
2021/09/21 13:20:21;;;;;;;23.23;21.83;;;;;;;;;;5056082;28;20557;-89
2021/09/21 13:22:49;;;;;;;24.40;22.90;;;;;;;;;;5055809;28;20437;-90
2021/09/21 13:25:16;;;;;;;23.63;22.13;;;;;;;;;;5055642;28;20473;-88
2021/09/21 13:27:44;;;;;;;23.83;22.33;;;;;;;;;;5055361;28;20918;-88
2021/09/21 13:30:12;;;;;;;24.13;22.40;;;;;;;;;;5055509;28;20410;-85
2021/09/21 13:32:41;;;;;;;24.97;23.37;;;;;;;;;;5055413;28;20419;-86
2021/09/21 13:35:09;;;;;;;24.20;22.60;;;;;;;;;;5054987;28;20434;-88
2021/09/21 13:37:38;;;;;;;23.70;22.30;;;;;;;;;;5055691;28;20408;-88
2021/09/21 13:40:06;;;;;;;23.33;21.93;;;;;;;;;;5055497;28;20438;-87
2021/09/21 13:42:35;;;;;;;22.93;21.53;;;;;;;;;;5038194;28;20413;-87
2021/09/21 13:45:02;;;;;;;23.10;21.60;;;;;;;;;;5055383;28;20955;-88
2021/09/21 13:47:30;;;;;;;23.80;22.10;;;;;;;;;;5055244;28;20502;-88
2021/09/21 13:49:59;;;;;;;22.90;21.40;;;;;;;;;;5055243;28;20444;-88
2021/09/21 13:52:27;;;;;;;23.87;22.20;;;;;;;;;;5055133;28;20449;-89
2021/09/21 13:54:55;;;;;;;23.40;22.00;;;;;;;;;;5037361;28;20450;-86
2021/09/21 13:57:23;;;;;;;23.30;21.73;;;;;;;;;;5037065;28;20436;-85
2021/09/21 13:59:50;;;;;;;23.40;21.90;;;;;;;;;;5055045;28;20793;-86
2021/09/21 14:02:18;;;;;;;23.10;21.60;;;;;;;;;;5054500;28;20447;-85
2021/09/21 14:04:46;;;;;;;22.90;21.50;;;;;;;;;;5054346;28;20483;-83
2021/09/21 14:07:15;;;;;;;24.17;22.67;;;;;;;;;;5036977;28;20830;-85
2021/09/21 14:09:42;;;;;;;23.10;21.53;;;;;;;;;;5037216;28;20500;-85
2021/09/21 14:12:10;;;;;;;23.73;22.20;;;;;;;;;;5054642;28;20768;-85
2021/09/21 14:17:41;;;;;;;24.47;22.87;;;;;;;;;;5054608;28;20400;-85
2021/09/21 14:20:10;;;;;;;24.67;23.20;;;;;;;;;;5054646;28;20414;-85
2021/09/21 14:22:39;;;;;;;24.10;22.60;;;;;;;;;;5054584;28;20418;-85
2021/09/21 14:25:08;;;;;;;24.33;22.83;;;;;;;;;;5037046;28;20422;-85
2021/09/21 14:27:35;;;;;;;24.43;22.87;;;;;;;;;;5036225;28;20452;-86
2021/09/21 14:30:05;;;;;;;24.80;23.10;;;;;;;;;;5053779;28;20457;-86
2021/09/21 14:32:32;;;;;;;23.73;22.10;;;;;;;;;;5054196;28;20442;-85
2021/09/21 14:35:00;;;;;;;24.57;22.97;;;;;;;;;;5053043;28;20437;-84
2021/09/21 14:37:27;;;;;;;24.20;22.70;;;;;;;;;;5054076;28;20479;-85
2021/09/21 14:39:56;;;;;;;25.10;23.50;;;;;;;;;;5054185;28;20435;-85
2021/09/21 14:42:24;;;;;;;23.70;22.00;;;;;;;;;;5054675;28;20450;-85